createdAt,value
2022-08-03T00:00:25.208Z,86.26
2022-08-03T00:01:25.241Z,85.16
2022-08-03T00:02:25.181Z,85.36
2022-08-03T00:03:25.193Z,84.35
2022-08-03T00:04:34.171Z,84.45
2022-08-03T00:05:25.151Z,84.11
2022-08-03T00:06:25.142Z,83.91
2022-08-03T00:07:25.160Z,84.11
2022-08-03T00:08:25.124Z,84.25
2022-08-03T00:09:25.115Z,84.41
2022-08-03T00:10:25.132Z,84.51
2022-08-03T00:11:25.095Z,83.91
2022-08-03T00:12:25.112Z,83.91
2022-08-03T00:13:25.082Z,83.81
2022-08-03T00:14:25.071Z,83.41
2022-08-03T00:15:25.054Z,83.51
2022-08-03T00:16:25.047Z,83.41
2022-08-03T00:17:25.066Z,83.61
2022-08-03T00:18:25.030Z,83.31
2022-08-03T00:19:25.023Z,83.11
2022-08-03T00:20:25.013Z,83.51
2022-08-03T00:21:25.004Z,83.71
2022-08-03T00:22:24.994Z,83.47
2022-08-03T00:23:25.004Z,83.11
2022-08-03T00:24:24.971Z,83.81
2022-08-03T00:25:24.962Z,83.01
2022-08-03T00:26:24.953Z,83.01
2022-08-03T00:27:24.941Z,83.31
2022-08-03T00:28:24.962Z,83.31
2022-08-03T00:29:24.925Z,82.81
2022-08-03T00:30:30.117Z,83.11
2022-08-03T00:31:45.016Z,83.11
2022-08-03T00:32:24.929Z,82.90
2022-08-03T00:33:24.882Z,83.07
2022-08-03T00:34:34.555Z,82.76
2022-08-03T00:35:35.170Z,82.51
2022-08-03T00:36:24.858Z,83.07
2022-08-03T00:37:24.847Z,83.01
2022-08-03T00:38:24.837Z,83.45
2022-08-03T00:39:24.827Z,83.75
2022-08-03T00:40:24.819Z,83.65
2022-08-03T00:41:24.807Z,84.55
2022-08-03T00:42:24.804Z,84.35
2022-08-03T00:43:24.823Z,83.85
2022-08-03T00:44:24.782Z,84.45
2022-08-03T00:45:24.769Z,84.35
2022-08-03T00:46:24.764Z,84.95
2022-08-03T00:47:24.749Z,85.36
2022-08-03T00:48:33.785Z,84.95
2022-08-03T00:49:24.794Z,84.35
2022-08-03T00:50:24.721Z,84.55
2022-08-03T00:51:24.709Z,86.26
2022-08-03T00:52:24.705Z,87.06
2022-08-03T00:53:24.694Z,86.06
2022-08-03T00:54:24.714Z,86.96
2022-08-03T00:55:24.676Z,86.20
2022-08-03T00:56:24.693Z,87.21
2022-08-03T00:57:24.652Z,87.55
2022-08-03T00:58:24.644Z,87.65
2022-08-03T00:59:24.636Z,87.45
2022-08-03T01:00:24.623Z,87.75
2022-08-03T01:01:24.731Z,87.35
2022-08-03T01:02:24.606Z,87.95
2022-08-03T01:03:24.593Z,88.45
2022-08-03T01:04:24.589Z,87.65
2022-08-03T01:05:24.577Z,89.15
2022-08-03T01:06:24.571Z,88.05
2022-08-03T01:07:24.606Z,87.79
2022-08-03T01:08:24.548Z,87.75
2022-08-03T01:09:24.537Z,87.95
2022-08-03T01:10:24.528Z,89.10
2022-08-03T01:11:24.521Z,89.10
2022-08-03T01:12:24.510Z,88.75
2022-08-03T01:14:03.626Z,88.90
2022-08-03T01:14:26.379Z,88.39
2022-08-03T01:15:24.479Z,88.70
2022-08-03T01:16:25.910Z,89.30
2022-08-03T01:17:24.459Z,88.90
2022-08-03T01:18:24.485Z,88.79
2022-08-03T01:19:24.442Z,89.40
2022-08-03T01:20:24.431Z,88.09
2022-08-03T01:21:24.423Z,88.29
2022-08-03T01:22:24.413Z,88.09
2022-08-03T01:23:24.426Z,88.59
2022-08-03T01:24:24.397Z,87.49
2022-08-03T01:25:24.384Z,87.89
2022-08-03T01:26:24.374Z,87.89
2022-08-03T01:27:24.367Z,87.79
2022-08-03T01:28:24.406Z,87.69
2022-08-03T01:29:24.348Z,88.29
2022-08-03T01:30:24.338Z,87.49
2022-08-03T01:31:24.328Z,88.19
2022-08-03T01:32:53.303Z,88.39
2022-08-03T01:33:24.305Z,88.84
2022-08-03T01:34:24.320Z,88.23
2022-08-03T01:35:24.291Z,87.83
2022-08-03T01:36:24.290Z,88.59
2022-08-03T01:37:24.267Z,88.64
2022-08-03T01:38:24.289Z,88.19
2022-08-03T01:39:24.251Z,88.59
2022-08-03T01:40:24.245Z,89.30
2022-08-03T01:41:24.227Z,87.89
2022-08-03T01:42:24.218Z,87.59
2022-08-03T01:43:55.376Z,87.99
2022-08-03T01:44:28.231Z,88.19
2022-08-03T01:45:24.201Z,87.89
2022-08-03T01:46:24.183Z,87.99
2022-08-03T01:47:24.169Z,87.99
2022-08-03T01:48:24.163Z,87.99
2022-08-03T01:49:24.264Z,88.59
2022-08-03T01:50:24.143Z,88.09
2022-08-03T01:51:24.153Z,89.10
2022-08-03T01:52:24.133Z,87.99
2022-08-03T01:53:24.111Z,88.64
2022-08-03T01:54:24.100Z,88.34
2022-08-03T01:55:24.089Z,88.74
2022-08-03T01:56:24.110Z,89.14
2022-08-03T01:57:24.071Z,88.84
2022-08-03T01:58:24.066Z,89.34
2022-08-03T01:59:24.077Z,88.34
2022-08-03T02:00:24.077Z,88.79
2022-08-03T02:01:24.060Z,87.93
2022-08-03T02:02:32.738Z,88.43
2022-08-03T02:03:24.011Z,88.43
2022-08-03T02:04:24.006Z,88.23
2022-08-03T02:05:23.994Z,88.74
2022-08-03T02:07:02.539Z,89.24
2022-08-03T02:07:24.000Z,89.79
2022-08-03T02:08:23.965Z,89.54
2022-08-03T02:09:23.955Z,90.19
2022-08-03T02:10:34.630Z,89.54
2022-08-03T02:11:23.933Z,90.29
2022-08-03T02:12:23.950Z,89.39
2022-08-03T02:13:23.912Z,89.28
2022-08-03T02:14:23.932Z,89.89
2022-08-03T02:15:23.890Z,89.44
2022-08-03T02:16:23.887Z,90.09
2022-08-03T02:17:38.589Z,90.29
2022-08-03T02:18:23.873Z,89.99
2022-08-03T02:19:23.855Z,90.39
2022-08-03T02:20:23.847Z,89.89
2022-08-03T02:21:56.316Z,89.59
2022-08-03T02:22:23.865Z,89.59
2022-08-03T02:23:23.817Z,90.09
2022-08-03T02:24:23.805Z,89.59
2022-08-03T02:25:23.802Z,89.69
2022-08-03T02:26:23.785Z,89.39
2022-08-03T02:27:23.826Z,89.39
2022-08-03T02:28:23.767Z,89.64
2022-08-03T02:29:39.262Z,89.18
2022-08-03T02:30:23.746Z,89.59
2022-08-03T02:31:23.734Z,89.48
2022-08-03T02:32:23.728Z,89.24
2022-08-03T02:33:23.719Z,89.54
2022-08-03T02:34:23.705Z,88.94
2022-08-03T02:35:23.697Z,88.43
2022-08-03T02:36:23.683Z,88.28
2022-08-03T02:37:23.705Z,89.34
2022-08-03T02:38:23.666Z,88.84
2022-08-03T02:39:23.654Z,89.44
2022-08-03T02:40:23.647Z,89.08
2022-08-03T02:41:23.638Z,89.59
2022-08-03T02:42:23.620Z,89.89
2022-08-03T02:43:23.619Z,89.59
2022-08-03T02:44:23.612Z,89.24
2022-08-03T02:45:23.631Z,89.79
2022-08-03T02:46:23.640Z,89.39
2022-08-03T02:47:23.578Z,89.59
2022-08-03T02:48:23.575Z,89.28
2022-08-03T02:49:40.761Z,89.48
2022-08-03T02:50:23.631Z,89.39
2022-08-03T02:51:23.540Z,88.84
2022-08-03T02:52:23.601Z,89.04
2022-08-03T02:53:23.517Z,89.59
2022-08-03T02:54:23.504Z,88.74
2022-08-03T02:55:23.524Z,89.89
2022-08-03T02:56:23.515Z,89.69
2022-08-03T02:57:23.505Z,89.69
2022-08-03T02:58:23.473Z,90.09
2022-08-03T02:59:23.459Z,89.59
2022-08-03T03:00:27.885Z,89.79
2022-08-03T03:01:23.529Z,89.28
2022-08-03T03:02:23.422Z,89.59
2022-08-03T03:03:23.430Z,90.29
2022-08-03T03:04:24.938Z,90.89
2022-08-03T03:05:52.241Z,90.39
2022-08-03T03:06:23.382Z,89.69
2022-08-03T03:07:23.404Z,90.19
2022-08-03T03:08:26.724Z,90.29
2022-08-03T03:09:23.357Z,89.79
2022-08-03T03:10:23.373Z,89.69
2022-08-03T03:11:23.349Z,89.39
2022-08-03T03:12:23.321Z,89.48
2022-08-03T03:13:23.322Z,89.89
2022-08-03T03:14:33.181Z,89.99
2022-08-03T03:15:23.343Z,89.89
2022-08-03T03:16:23.279Z,89.79
2022-08-03T03:17:23.271Z,89.59
2022-08-03T03:18:23.281Z,89.59
2022-08-03T03:19:23.252Z,89.59
2022-08-03T03:20:29.758Z,89.99
2022-08-03T03:21:23.319Z,89.39
2022-08-03T03:22:23.221Z,89.89
2022-08-03T03:23:23.222Z,90.69
2022-08-03T03:24:23.207Z,89.79
2022-08-03T03:25:23.201Z,89.39
2022-08-03T03:26:23.186Z,89.59
2022-08-03T03:27:23.201Z,89.79
2022-08-03T03:28:23.157Z,90.39
2022-08-03T03:29:23.150Z,89.79
2022-08-03T03:30:23.139Z,89.48
2022-08-03T03:31:23.132Z,89.99
2022-08-03T03:32:23.175Z,89.59
2022-08-03T03:33:23.114Z,89.79
2022-08-03T03:34:23.109Z,89.99
2022-08-03T03:35:23.095Z,90.49
2022-08-03T03:36:23.077Z,90.29
2022-08-03T03:37:23.073Z,89.89
2022-08-03T03:38:23.083Z,89.69
2022-08-03T03:39:23.053Z,90.33
2022-08-03T03:40:23.056Z,90.23
2022-08-03T03:41:23.031Z,90.94
2022-08-03T03:42:23.020Z,91.34
2022-08-03T03:43:23.060Z,90.73
2022-08-03T03:44:23.021Z,90.13
2022-08-03T03:45:22.994Z,90.64
2022-08-03T03:46:22.977Z,90.84
2022-08-03T03:47:32.333Z,91.34
2022-08-03T03:48:22.955Z,91.44
2022-08-03T03:49:23.022Z,90.33
2022-08-03T03:50:22.937Z,91.44
2022-08-03T03:51:22.938Z,91.54
2022-08-03T03:52:22.919Z,91.58
2022-08-03T03:53:22.967Z,90.23
2022-08-03T03:54:25.563Z,91.54
2022-08-03T03:55:22.884Z,90.98
2022-08-03T03:56:22.874Z,91.58
2022-08-03T03:57:22.872Z,90.64
2022-08-03T03:58:22.850Z,91.78
2022-08-03T03:59:22.874Z,91.78
2022-08-03T04:00:22.835Z,91.58
2022-08-03T04:01:22.892Z,92.29
2022-08-03T04:02:22.822Z,92.49
2022-08-03T04:03:22.808Z,92.19
2022-08-03T04:04:22.835Z,91.99
2022-08-03T04:05:22.811Z,91.54
2022-08-03T04:06:22.774Z,90.88
2022-08-03T04:07:22.782Z,90.78
2022-08-03T04:08:22.753Z,90.64
2022-08-03T04:09:22.743Z,90.03
2022-08-03T04:10:22.763Z,89.93
2022-08-03T04:11:30.295Z,89.89
2022-08-03T04:12:22.708Z,89.28
2022-08-03T04:13:22.702Z,89.48
2022-08-03T04:14:22.726Z,89.28
2022-08-03T04:15:22.683Z,89.79
2022-08-03T04:16:22.669Z,88.78
2022-08-03T04:17:22.661Z,89.28
2022-08-03T04:18:22.651Z,89.39
2022-08-03T04:19:23.460Z,89.28
2022-08-03T04:20:22.662Z,89.39
2022-08-03T04:21:22.620Z,89.39
2022-08-03T04:22:22.607Z,89.18
2022-08-03T04:23:22.599Z,89.59
2022-08-03T04:24:22.585Z,89.28
2022-08-03T04:25:22.621Z,89.48
2022-08-03T04:26:22.570Z,89.28
2022-08-03T04:27:22.557Z,89.18
2022-08-03T04:28:30.807Z,89.48
2022-08-03T04:29:22.537Z,89.39
2022-08-03T04:30:22.550Z,89.23
2022-08-03T04:31:22.520Z,89.69
2022-08-03T04:32:22.540Z,89.63
2022-08-03T04:33:22.497Z,89.79
2022-08-03T04:34:22.489Z,89.79
2022-08-03T04:35:22.479Z,89.39
2022-08-03T04:36:22.465Z,90.19
2022-08-03T04:37:22.486Z,90.19
2022-08-03T04:38:22.448Z,89.79
2022-08-03T04:39:22.435Z,89.69
2022-08-03T04:40:22.917Z,89.73
2022-08-03T04:41:22.414Z,91.54
2022-08-03T04:42:22.523Z,91.85
2022-08-03T04:43:22.392Z,91.54
2022-08-03T04:44:22.382Z,92.29
2022-08-03T04:45:22.373Z,92.49
2022-08-03T04:46:22.386Z,91.74
2022-08-03T04:47:22.350Z,91.64
2022-08-03T04:48:22.343Z,91.24
2022-08-03T04:49:22.462Z,90.84
2022-08-03T04:50:22.347Z,91.85
2022-08-03T04:51:22.318Z,91.94
2022-08-03T04:52:22.301Z,92.55
2022-08-03T04:53:22.327Z,91.94
2022-08-03T04:54:22.277Z,92.45
2022-08-03T04:55:22.265Z,92.05
2022-08-03T04:56:22.278Z,90.94
2022-08-03T04:57:23.568Z,91.74
2022-08-03T04:58:22.239Z,91.19
2022-08-03T04:59:22.236Z,91.34
2022-08-03T05:00:22.216Z,90.64
2022-08-03T05:01:22.304Z,92.05
2022-08-03T05:02:22.193Z,91.85
2022-08-03T05:03:25.057Z,93.30
2022-08-03T05:04:22.174Z,92.39
2022-08-03T05:05:22.167Z,92.25
2022-08-03T05:06:22.154Z,92.55
2022-08-03T05:07:25.019Z,92.49
2022-08-03T05:08:28.049Z,92.59
2022-08-03T05:09:50.783Z,92.59
2022-08-03T05:10:22.115Z,92.49
2022-08-03T05:11:22.107Z,92.35
2022-08-03T05:12:22.094Z,92.55
2022-08-03T05:13:22.111Z,93.15
2022-08-03T05:14:28.089Z,92.75
2022-08-03T05:15:22.063Z,91.85
2022-08-03T05:16:22.057Z,92.45
2022-08-03T05:17:22.047Z,93.35
2022-08-03T05:18:22.063Z,92.55
2022-08-03T05:19:22.085Z,91.85
2022-08-03T05:20:22.011Z,91.85
2022-08-03T05:21:22.000Z,92.25
2022-08-03T05:22:21.992Z,92.65
2022-08-03T05:23:21.984Z,92.65
2022-08-03T05:24:21.972Z,92.14
2022-08-03T05:25:27.100Z,92.25
2022-08-03T05:26:21.952Z,91.64
2022-08-03T05:27:21.945Z,92.20
2022-08-03T05:28:21.933Z,93.51
2022-08-03T05:29:21.925Z,92.50
2022-08-03T05:30:30.994Z,92.20
2022-08-03T05:31:21.910Z,92.60
2022-08-03T05:32:22.250Z,93.01
2022-08-03T05:33:21.894Z,92.30
2022-08-03T05:34:21.870Z,93.01
2022-08-03T05:35:57.736Z,92.91
2022-08-03T05:36:21.907Z,91.90
2022-08-03T05:37:21.843Z,91.80
2022-08-03T05:38:28.139Z,92.80
2022-08-03T05:39:21.826Z,92.50
2022-08-03T05:40:21.807Z,92.71
2022-08-03T05:41:36.532Z,92.50
2022-08-03T05:42:21.829Z,92.50
2022-08-03T05:43:21.783Z,92.20
2022-08-03T05:44:21.767Z,92.00
2022-08-03T05:45:25.412Z,92.00
2022-08-03T05:46:21.747Z,91.86
2022-08-03T05:47:21.738Z,91.80
2022-08-03T05:48:21.761Z,91.96
2022-08-03T05:49:21.772Z,90.55
2022-08-03T05:50:21.709Z,90.55
2022-08-03T05:51:21.700Z,90.15
2022-08-03T05:52:21.838Z,90.95
2022-08-03T05:53:21.691Z,91.01
2022-08-03T05:54:21.669Z,89.84
2022-08-03T05:55:21.660Z,89.90
2022-08-03T05:56:21.652Z,90.11
2022-08-03T05:57:21.661Z,90.30
2022-08-03T05:58:21.655Z,91.41
2022-08-03T05:59:37.695Z,90.41
2022-08-03T06:00:21.607Z,90.00
2022-08-03T06:01:21.630Z,91.41
2022-08-03T06:02:21.587Z,90.30
2022-08-03T06:03:21.609Z,90.11
2022-08-03T06:04:21.570Z,91.82
2022-08-03T06:05:21.571Z,89.60
2022-08-03T06:06:21.547Z,90.30
2022-08-03T06:07:21.549Z,89.90
2022-08-03T06:08:21.563Z,90.11
2022-08-03T06:09:21.522Z,89.80
2022-08-03T06:10:35.662Z,90.91
2022-08-03T06:11:21.526Z,91.01
2022-08-03T06:12:21.504Z,90.00
2022-08-03T06:13:21.491Z,90.26
2022-08-03T06:14:21.469Z,91.21
2022-08-03T06:15:21.504Z,90.81
2022-08-03T06:16:21.452Z,90.81
2022-08-03T06:17:21.444Z,91.51
2022-08-03T06:18:21.430Z,91.41
2022-08-03T06:19:21.454Z,90.20
2022-08-03T06:20:21.417Z,90.56
2022-08-03T06:21:21.406Z,90.81
2022-08-03T06:22:21.445Z,89.70
2022-08-03T06:23:21.382Z,91.57
2022-08-03T06:24:21.404Z,90.81
2022-08-03T06:25:21.522Z,90.77
2022-08-03T06:26:21.376Z,91.37
2022-08-03T06:27:21.344Z,91.57
2022-08-03T06:28:53.368Z,91.17
2022-08-03T06:29:21.332Z,89.96
2022-08-03T06:30:21.592Z,90.66
2022-08-03T06:31:21.311Z,91.27
2022-08-03T06:32:21.292Z,91.37
2022-08-03T06:33:21.295Z,91.77
2022-08-03T06:34:33.715Z,91.37
2022-08-03T06:35:21.271Z,91.47
2022-08-03T06:36:21.258Z,91.47
2022-08-03T06:37:21.249Z,90.02
2022-08-03T06:38:21.238Z,90.92
2022-08-03T06:39:23.193Z,91.02
2022-08-03T06:40:21.772Z,89.42
2022-08-03T06:41:21.278Z,89.62
2022-08-03T06:42:21.209Z,91.52
2022-08-03T06:43:21.191Z,90.92
2022-08-03T06:44:21.181Z,90.02
2022-08-03T06:45:21.168Z,89.92
2022-08-03T06:46:21.160Z,91.28
2022-08-03T06:47:21.175Z,91.08
2022-08-03T06:48:21.144Z,89.37
2022-08-03T06:49:21.194Z,89.47
2022-08-03T06:50:26.032Z,89.07
2022-08-03T06:51:21.111Z,88.97
2022-08-03T06:52:44.871Z,89.23
2022-08-03T06:53:21.483Z,89.23
2022-08-03T06:54:21.089Z,90.84
2022-08-03T06:55:21.083Z,89.23
2022-08-03T06:56:21.065Z,88.63
2022-08-03T06:57:21.053Z,88.73
2022-08-03T06:58:21.108Z,88.99
2022-08-03T07:00:10.364Z,88.23
2022-08-03T07:00:21.355Z,88.79
2022-08-03T07:01:21.053Z,87.18
2022-08-03T07:02:21.159Z,88.89
2022-08-03T07:03:20.997Z,86.88
2022-08-03T07:04:20.996Z,86.74
2022-08-03T07:05:20.981Z,86.54
2022-08-03T07:06:20.973Z,87.84
2022-08-03T07:07:20.962Z,87.14
2022-08-03T07:08:33.800Z,87.30
2022-08-03T07:09:20.983Z,87.20
2022-08-03T07:10:20.935Z,86.84
2022-08-03T07:11:20.922Z,86.40
2022-08-03T07:12:20.913Z,85.69
2022-08-03T07:13:20.913Z,85.39
2022-08-03T07:14:20.898Z,86.69
2022-08-03T07:15:54.287Z,85.69
2022-08-03T07:16:20.877Z,86.10
2022-08-03T07:17:20.869Z,85.99
2022-08-03T07:18:29.562Z,85.30
2022-08-03T07:19:20.862Z,85.25
2022-08-03T07:20:20.897Z,84.25
2022-08-03T07:21:20.839Z,83.25
2022-08-03T07:22:20.823Z,83.35
2022-08-03T07:23:20.815Z,84.01
2022-08-03T07:24:20.807Z,85.85
2022-08-03T07:25:20.792Z,85.01
2022-08-03T07:26:20.789Z,83.81
2022-08-03T07:27:20.787Z,84.91
2022-08-03T07:28:20.777Z,84.61
2022-08-03T07:29:20.762Z,83.81
2022-08-03T07:30:20.749Z,84.91
2022-08-03T07:31:20.738Z,83.67
2022-08-03T07:32:20.737Z,83.17
2022-08-03T07:33:20.966Z,82.47
2022-08-03T07:34:20.715Z,82.57
2022-08-03T07:35:24.744Z,83.13
2022-08-03T07:36:20.718Z,83.83
2022-08-03T07:37:20.710Z,83.83
2022-08-03T07:38:21.223Z,81.93
2022-08-03T07:39:20.664Z,82.33
2022-08-03T07:40:20.657Z,82.03
2022-08-03T07:41:20.655Z,81.79
2022-08-03T07:42:20.709Z,80.89
2022-08-03T07:43:20.629Z,80.59
2022-08-03T07:44:20.629Z,81.15
2022-08-03T07:45:20.612Z,81.45
2022-08-03T07:46:20.608Z,81.35
2022-08-03T07:47:22.637Z,81.15
2022-08-03T07:48:20.589Z,78.16
2022-08-03T07:49:20.626Z,76.32
2022-08-03T07:50:20.671Z,76.72
2022-08-03T07:51:20.559Z,77.92
2022-08-03T07:52:20.557Z,77.51
2022-08-03T07:53:20.740Z,77.62
2022-08-03T07:54:21.000Z,75.89
2022-08-03T07:55:20.542Z,73.02
2022-08-03T07:56:20.521Z,73.68
2022-08-03T07:57:20.510Z,73.38
2022-08-03T07:58:24.000Z,73.58
2022-08-03T07:59:20.515Z,74.77
2022-08-03T08:00:20.532Z,72.28
2022-08-03T08:01:20.525Z,72.88
2022-08-03T08:02:20.472Z,73.14
2022-08-03T08:03:20.457Z,73.65
2022-08-03T08:04:20.470Z,74.94
2022-08-03T08:05:20.437Z,74.04
2022-08-03T08:06:20.461Z,73.78
2022-08-03T08:07:20.738Z,71.98
2022-08-03T08:08:20.416Z,73.05
2022-08-03T08:09:20.427Z,70.22
2022-08-03T08:10:20.409Z,70.19
2022-08-03T08:11:20.394Z,68.79
2022-08-03T08:12:20.658Z,68.60
2022-08-03T08:13:20.433Z,69.29
2022-08-03T08:14:20.365Z,68.66
2022-08-03T08:15:20.358Z,68.27
2022-08-03T08:16:20.361Z,68.86
2022-08-03T08:17:20.338Z,67.97
2022-08-03T08:18:20.333Z,68.86
2022-08-03T08:19:20.352Z,68.56
2022-08-03T08:20:27.059Z,67.14
2022-08-03T08:21:20.321Z,68.27
2022-08-03T08:22:29.829Z,68.66
2022-08-03T08:23:41.898Z,69.23
2022-08-03T08:24:20.463Z,68.13
2022-08-03T08:25:20.281Z,69.13
2022-08-03T08:26:20.266Z,68.63
2022-08-03T08:27:20.256Z,68.07
2022-08-03T08:28:29.284Z,68.56
2022-08-03T08:29:20.246Z,66.35
2022-08-03T08:30:20.341Z,68.23
2022-08-03T08:31:20.245Z,68.73
2022-08-03T08:32:20.223Z,68.23
2022-08-03T08:33:22.569Z,67.14
2022-08-03T08:34:20.234Z,67.50
2022-08-03T08:35:20.197Z,68.60
2022-08-03T08:36:20.194Z,69.20
2022-08-03T08:37:20.189Z,69.49
2022-08-03T08:38:20.176Z,67.70
2022-08-03T08:39:20.166Z,68.10
2022-08-03T08:40:20.189Z,65.81
2022-08-03T08:41:20.194Z,65.98
2022-08-03T08:42:20.143Z,67.77
2022-08-03T08:43:20.135Z,66.67
2022-08-03T08:44:20.132Z,68.50
2022-08-03T08:45:20.123Z,68.30
2022-08-03T08:46:23.497Z,68.90
2022-08-03T08:47:20.103Z,68.63
2022-08-03T08:48:20.099Z,68.30
2022-08-03T08:49:20.118Z,68.37
2022-08-03T08:50:27.602Z,67.07
2022-08-03T08:51:20.101Z,68.20
2022-08-03T08:52:25.267Z,68.16
2022-08-03T08:53:25.477Z,67.00
2022-08-03T08:54:20.054Z,67.21
2022-08-03T08:55:20.045Z,68.27
2022-08-03T08:56:20.049Z,68.07
2022-08-03T08:57:41.493Z,66.58
2022-08-03T08:58:21.101Z,67.07
2022-08-03T08:59:20.017Z,66.38
2022-08-03T09:00:20.010Z,65.65
2022-08-03T09:01:20.062Z,64.43
2022-08-03T09:02:20.102Z,65.92
2022-08-03T09:03:29.354Z,66.91
2022-08-03T09:04:20.014Z,65.42
2022-08-03T09:05:27.838Z,65.85
2022-08-03T09:06:20.006Z,65.02
2022-08-03T09:07:29.156Z,65.12
2022-08-03T09:08:19.984Z,64.20
2022-08-03T09:10:11.646Z,65.69
2022-08-03T09:10:20.041Z,63.97
2022-08-03T09:11:19.968Z,63.57
2022-08-03T09:12:40.962Z,63.48
2022-08-03T09:13:20.083Z,63.37
2022-08-03T09:14:33.692Z,63.08
2022-08-03T09:15:20.054Z,63.87
2022-08-03T09:16:19.907Z,63.84
2022-08-03T09:17:20.222Z,64.04
2022-08-03T09:18:19.889Z,64.53
2022-08-03T09:19:19.882Z,62.38
2022-08-03T09:20:19.882Z,63.24
2022-08-03T09:21:33.951Z,65.63
2022-08-03T09:22:19.887Z,64.37
2022-08-03T09:23:51.443Z,63.77
2022-08-03T09:24:31.308Z,63.54
2022-08-03T09:25:24.588Z,63.94
2022-08-03T09:26:19.840Z,65.56
2022-08-03T09:27:19.844Z,66.35
2022-08-03T09:28:32.338Z,65.95
2022-08-03T09:29:19.857Z,65.66
2022-08-03T09:30:33.125Z,65.09
2022-08-03T09:31:19.809Z,66.08
2022-08-03T09:32:19.810Z,66.25
2022-08-03T09:33:19.815Z,65.16
2022-08-03T09:34:19.795Z,63.28
2022-08-03T09:35:33.150Z,62.65
2022-08-03T09:36:19.781Z,63.31
2022-08-03T09:37:20.034Z,63.02
2022-08-03T09:38:19.771Z,60.91
2022-08-03T09:39:19.769Z,60.41
2022-08-03T09:40:19.767Z,61.90
2022-08-03T09:41:19.757Z,61.10
2022-08-03T09:42:23.553Z,60.81
2022-08-03T09:43:19.753Z,60.51
2022-08-03T09:44:25.234Z,61.57
2022-08-03T09:45:19.775Z,61.27
2022-08-03T09:46:19.750Z,62.26
2022-08-03T09:47:19.943Z,61.27
2022-08-03T09:48:19.739Z,62.85
2022-08-03T09:49:19.817Z,61.83
2022-08-03T09:50:19.734Z,60.58
2022-08-03T09:52:28.878Z,61.96
2022-08-03T09:52:31.714Z,62.13
2022-08-03T09:53:19.720Z,60.82
2022-08-03T09:54:20.799Z,61.21
2022-08-03T09:56:30.522Z,63.29
2022-08-03T09:56:34.556Z,60.52
2022-08-03T09:57:19.853Z,60.19
2022-08-03T09:58:19.765Z,60.49
2022-08-03T09:59:19.713Z,58.72
2022-08-03T10:00:19.712Z,59.60
2022-08-03T10:01:24.242Z,59.63
2022-08-03T10:02:19.711Z,59.53
2022-08-03T10:03:19.705Z,62.40
2022-08-03T10:04:19.730Z,62.79
2022-08-03T10:05:20.106Z,62.20
2022-08-03T10:06:19.710Z,60.55
2022-08-03T10:07:20.045Z,59.95
2022-08-03T10:08:19.702Z,60.62
2022-08-03T10:09:19.750Z,59.53
2022-08-03T10:10:28.933Z,60.19
2022-08-03T10:11:19.700Z,59.60
2022-08-03T10:12:19.695Z,60.39
2022-08-03T10:13:19.693Z,59.31
2022-08-03T10:14:19.930Z,58.91
2022-08-03T10:16:21.153Z,59.50
2022-08-03T10:16:24.988Z,59.70
2022-08-03T10:17:19.804Z,59.41
2022-08-03T10:18:19.692Z,59.18
2022-08-03T10:19:19.726Z,58.59
2022-08-03T10:20:19.719Z,58.36
2022-08-03T10:21:19.710Z,58.63
2022-08-03T10:22:19.691Z,58.60
2022-08-03T10:23:19.689Z,57.22
2022-08-03T10:24:19.697Z,56.63
2022-08-03T10:25:19.752Z,57.51
2022-08-03T10:26:19.696Z,58.33
2022-08-03T10:27:19.989Z,58.63
2022-08-03T10:28:19.693Z,59.02
2022-08-03T10:29:19.710Z,59.02
2022-08-03T10:30:19.698Z,56.85
2022-08-03T10:31:19.719Z,57.67
2022-08-03T10:32:19.705Z,59.25
2022-08-03T10:33:49.472Z,56.51
2022-08-03T10:34:19.697Z,57.82
2022-08-03T10:35:21.254Z,59.50
2022-08-03T10:36:19.748Z,58.64
2022-08-03T10:37:19.966Z,59.53
2022-08-03T10:38:19.705Z,59.36
2022-08-03T10:39:19.709Z,60.35
2022-08-03T10:40:39.507Z,60.85
2022-08-03T10:41:19.726Z,59.76
2022-08-03T10:42:19.695Z,58.77
2022-08-03T10:43:19.728Z,59.33
2022-08-03T10:44:19.695Z,60.32
2022-08-03T10:45:19.852Z,59.50
2022-08-03T10:46:19.691Z,57.53
2022-08-03T10:47:20.001Z,56.57
2022-08-03T10:48:19.691Z,56.96
2022-08-03T10:49:33.829Z,58.54
2022-08-03T10:50:19.684Z,57.65
2022-08-03T10:51:19.721Z,58.64
2022-08-03T10:52:33.810Z,57.85
2022-08-03T10:53:20.069Z,59.14
2022-08-03T10:54:19.707Z,58.84
2022-08-03T10:55:20.678Z,56.89
2022-08-03T10:56:19.677Z,56.67
2022-08-03T10:57:19.715Z,59.33
2022-08-03T10:58:30.335Z,57.75
2022-08-03T10:59:28.158Z,59.44
2022-08-03T11:00:19.663Z,59.63
2022-08-03T11:01:19.712Z,59.63
2022-08-03T11:02:19.649Z,59.33
2022-08-03T11:03:19.690Z,60.22
2022-08-03T11:04:19.642Z,58.64
2022-08-03T11:05:19.647Z,59.04
2022-08-03T11:06:19.639Z,58.25
2022-08-03T11:07:20.046Z,56.76
2022-08-03T11:08:19.688Z,57.75
2022-08-03T11:09:19.646Z,59.06
2022-08-03T11:10:19.627Z,60.85
2022-08-03T11:11:19.620Z,59.14
2022-08-03T11:12:19.616Z,57.75
2022-08-03T11:13:19.612Z,59.44
2022-08-03T11:14:19.645Z,59.33
2022-08-03T11:15:19.601Z,58.25
2022-08-03T11:16:21.894Z,60.03
2022-08-03T11:17:19.954Z,58.74
2022-08-03T11:18:19.584Z,59.60
2022-08-03T11:19:19.618Z,59.01
2022-08-03T11:20:19.574Z,58.74
2022-08-03T11:21:19.572Z,58.61
2022-08-03T11:22:19.573Z,58.22
2022-08-03T11:23:19.569Z,58.61
2022-08-03T11:24:19.584Z,59.20
2022-08-03T11:25:34.826Z,57.62
2022-08-03T11:26:19.543Z,60.39
2022-08-03T11:27:19.876Z,59.31
2022-08-03T11:28:19.540Z,58.51
2022-08-03T11:29:19.563Z,58.32
2022-08-03T11:30:19.526Z,59.38
2022-08-03T11:31:46.797Z,58.06
2022-08-03T11:32:19.697Z,55.96
2022-08-03T11:33:19.516Z,56.38
2022-08-03T11:34:19.515Z,55.49
2022-08-03T11:35:19.580Z,57.07
2022-08-03T11:36:32.328Z,58.06
2022-08-03T11:37:19.878Z,55.20
2022-08-03T11:38:19.494Z,56.56
2022-08-03T11:39:19.488Z,56.43
2022-08-03T11:40:19.482Z,54.93
2022-08-03T11:41:19.477Z,56.82
2022-08-03T11:42:19.471Z,55.15
2022-08-03T11:43:19.479Z,55.64
2022-08-03T11:44:19.469Z,55.79
2022-08-03T11:45:19.520Z,56.19
2022-08-03T11:46:29.531Z,56.78
2022-08-03T11:47:20.154Z,59.02
2022-08-03T11:48:20.595Z,56.43
2022-08-03T11:49:19.509Z,54.55
2022-08-03T11:50:19.467Z,56.04
2022-08-03T11:51:19.443Z,55.44
2022-08-03T11:52:19.486Z,56.23
2022-08-03T11:53:19.433Z,55.35
2022-08-03T11:54:19.426Z,54.43
2022-08-03T11:55:19.449Z,54.63
2022-08-03T11:56:19.442Z,53.08
2022-08-03T11:57:19.610Z,55.77
2022-08-03T11:59:03.380Z,54.68
2022-08-03T11:59:22.176Z,56.65
2022-08-03T12:00:19.410Z,55.37
2022-08-03T12:01:23.009Z,55.96
2022-08-03T12:02:19.406Z,54.68
2022-08-03T12:03:19.440Z,55.15
2022-08-03T12:04:19.398Z,55.44
2022-08-03T12:05:19.403Z,54.88
2022-08-03T12:06:19.417Z,55.00
2022-08-03T12:07:24.999Z,55.00
2022-08-03T12:08:19.390Z,55.18
2022-08-03T12:09:21.208Z,56.58
2022-08-03T12:10:19.373Z,55.37
2022-08-03T12:11:19.403Z,55.18
2022-08-03T12:12:19.369Z,54.48
2022-08-03T12:14:43.785Z,55.83
2022-08-03T12:14:51.064Z,54.65
2022-08-03T12:15:19.359Z,56.63
2022-08-03T12:16:19.390Z,54.09
2022-08-03T12:17:19.733Z,55.35
2022-08-03T12:18:19.357Z,56.23
2022-08-03T12:19:19.345Z,54.93
2022-08-03T12:20:19.338Z,54.82
2022-08-03T12:21:19.339Z,53.96
2022-08-03T12:22:19.358Z,55.64
2022-08-03T12:23:19.337Z,53.47
2022-08-03T12:24:19.324Z,55.54
2022-08-03T12:25:19.343Z,55.24
2022-08-03T12:26:19.358Z,56.23
2022-08-03T12:27:19.657Z,55.54
2022-08-03T12:28:35.976Z,55.02
2022-08-03T12:29:19.317Z,55.32
2022-08-03T12:30:19.337Z,56.70
2022-08-03T12:31:19.297Z,58.30
2022-08-03T12:32:19.319Z,56.04
2022-08-03T12:33:19.286Z,56.33
2022-08-03T12:34:19.279Z,55.35
2022-08-03T12:35:19.273Z,54.82
2022-08-03T12:36:19.335Z,54.43
2022-08-03T12:37:23.033Z,56.01
2022-08-03T12:38:19.258Z,53.15
2022-08-03T12:39:19.257Z,55.24
2022-08-03T12:40:22.119Z,56.33
2022-08-03T12:41:19.245Z,54.16
2022-08-03T12:42:19.286Z,55.83
2022-08-03T12:43:19.239Z,55.12
2022-08-03T12:44:19.245Z,54.60
2022-08-03T12:45:19.232Z,53.74
2022-08-03T12:46:19.223Z,55.68
2022-08-03T12:47:19.575Z,55.19
2022-08-03T12:48:19.224Z,55.88
2022-08-03T12:49:19.278Z,54.11
2022-08-03T12:50:19.201Z,54.97
2022-08-03T12:51:19.205Z,53.49
2022-08-03T12:52:19.216Z,55.07